Time;durP1;ratioP1;P1;durP2;ratioP2;P2;SDS_P1;SDS_P2;PMS_P1;PMS_P2;Temp;Humidity;BMP_temperature;BMP_pressure;BME280_temperature;BME280_humidity;BME280_pressure;Samples;Min_cycle;Max_cycle;Signal;HPM_P1;HPM_P2
2023/09/28 00:01:20;;;;;;;1.17;1.10;;;;;;;19.32;60.24;101274.38;5037352;28;20029;-55
2023/09/28 00:03:47;;;;;;;1.35;1.25;;;;;;;19.32;60.58;101283.34;5034056;28;20388;-55
2023/09/28 00:06:13;;;;;;;1.50;1.40;;;;;;;19.32;60.38;101285.16;5037267;28;20467;-55
2023/09/28 00:08:38;;;;;;;1.08;1.00;;;;;;;19.32;60.37;101279.78;5036962;28;20040;-55
2023/09/28 00:11:05;;;;;;;1.30;1.20;;;;;;;19.33;60.65;101284.19;5036328;28;20037;-55
2023/09/28 00:13:30;;;;;;;1.00;1.00;;;;;;;19.32;60.25;101279.78;5036182;28;20054;-55
2023/09/28 00:15:56;;;;;;;1.30;1.20;;;;;;;19.33;60.41;101286.91;5036538;28;20055;-55
2023/09/28 00:18:23;;;;;;;1.50;1.40;;;;;;;19.32;60.80;101287.88;5036467;28;20045;-55
2023/09/28 00:20:49;;;;;;;1.58;1.30;;;;;;;19.32;60.29;101295.97;5035974;28;20108;-55
2023/09/28 00:23:14;;;;;;;1.40;1.30;;;;;;;19.31;60.37;101294.28;5034676;28;20141;-55
2023/09/28 00:25:40;;;;;;;1.20;1.10;;;;;;;19.31;60.29;101288.88;5035960;28;20033;-55
2023/09/28 00:28:06;;;;;;;1.45;1.35;;;;;;;19.32;60.38;101295.97;5035648;28;20116;-55
2023/09/28 00:30:31;;;;;;;1.50;1.40;;;;;;;19.31;60.38;101297.00;5037095;28;20029;-55
2023/09/28 00:32:57;;;;;;;2.05;1.33;;;;;;;19.30;60.29;101300.66;5036994;28;20044;-55
2023/09/28 00:35:25;;;;;;;1.40;1.30;;;;;;;19.31;60.56;101302.38;5037210;28;20380;-55
2023/09/28 00:37:51;;;;;;;1.10;1.10;;;;;;;19.30;60.49;101301.50;5037387;28;20463;-55
2023/09/28 00:40:18;;;;;;;1.08;1.08;;;;;;;19.30;60.21;101309.59;5036905;28;20121;-55
2023/09/28 00:42:45;;;;;;;1.08;1.08;;;;;;;19.30;60.31;101315.00;5036826;28;20033;-55
2023/09/28 00:45:10;;;;;;;1.48;1.38;;;;;;;19.32;60.32;101314.88;5036324;28;20036;-55
2023/09/28 00:47:40;;;;;;;1.50;1.40;;;;;;;19.32;60.44;101320.28;5035942;28;20024;-55
2023/09/28 00:50:16;;;;;;;1.20;1.10;;;;;;;19.32;60.74;101328.38;5035779;28;20518;-55
2023/09/28 00:52:43;;;;;;;1.38;1.27;;;;;;;19.31;60.65;101329.38;5032937;28;20040;-55
2023/09/28 00:55:10;;;;;;;1.20;1.10;;;;;;;19.31;60.25;101324.00;5035449;28;20029;-55
2023/09/28 00:57:38;;;;;;;1.50;1.40;;;;;;;19.32;60.86;101317.56;5035679;28;20086;-55
2023/09/28 01:00:26;;;;;;;1.50;1.40;;;;;;;19.30;60.44;101308.78;5035605;28;20159;-56
2023/09/28 01:02:53;;;;;;;1.23;1.13;;;;;;;19.30;60.17;101309.59;5032282;28;20061;-55
2023/09/28 01:05:27;;;;;;;1.30;1.20;;;;;;;19.30;60.46;101297.97;5035081;28;20610;-55
2023/09/28 01:07:53;;;;;;;1.17;1.08;;;;;;;19.29;60.65;101307.94;5033212;28;20067;-55
2023/09/28 01:10:23;;;;;;;1.25;1.15;;;;;;;19.29;60.44;101309.78;5034692;28;20037;-55
2023/09/28 01:12:49;;;;;;;1.05;1.05;;;;;;;19.30;60.47;101330.38;5034015;28;20057;-55
2023/09/28 01:15:15;;;;;;;1.50;1.40;;;;;;;19.30;60.48;101320.41;5036668;28;20060;-55
2023/09/28 01:17:41;;;;;;;1.10;1.08;;;;;;;19.29;60.47;101318.72;5036309;28;20056;-55
2023/09/28 01:20:18;;;;;;;1.30;1.20;;;;;;;19.29;60.41;101317.88;5035628;28;20021;-55
2023/09/28 01:22:49;;;;;;;1.20;1.10;;;;;;;19.29;60.37;101320.59;5035754;28;20033;-55
2023/09/28 01:25:15;;;;;;;2.00;1.42;;;;;;;19.30;60.30;101315.00;5035928;28;20510;-55
2023/09/28 01:27:44;;;;;;;1.30;1.20;;;;;;;19.29;60.51;101318.72;5035828;28;20375;-55
2023/09/28 01:30:11;;;;;;;1.27;1.20;;;;;;;19.29;60.44;101317.88;5035262;28;20083;-55
2023/09/28 01:32:37;;;;;;;1.50;1.40;;;;;;;19.29;60.43;101320.59;5034952;28;20038;-55
2023/09/28 01:35:04;;;;;;;1.45;1.35;;;;;;;19.30;60.32;101319.56;5034826;28;20039;-55
2023/09/28 01:37:52;;;;;;;1.35;1.25;;;;;;;19.29;60.54;101317.88;5034711;28;20037;-55
2023/09/28 01:40:18;;;;;;;1.40;1.30;;;;;;;19.29;60.53;101318.72;5033449;28;20017;-55
2023/09/28 01:42:43;;;;;;;1.58;1.48;;;;;;;19.28;60.64;101321.56;5034760;28;20033;-55
2023/09/28 01:45:09;;;;;;;1.17;1.15;;;;;;;19.29;60.32;101332.22;5034405;28;20033;-55
2023/09/28 01:47:35;;;;;;;1.50;1.40;;;;;;;19.29;60.27;101331.38;5034648;28;20482;-55
2023/09/28 01:50:01;;;;;;;1.35;1.25;;;;;;;19.29;60.67;101325.97;5034718;28;20462;-55
2023/09/28 01:52:26;;;;;;;1.30;1.20;;;;;;;19.29;60.55;101332.22;5036177;28;20483;-55
2023/09/28 01:54:52;;;;;;;1.75;1.38;;;;;;;19.29;60.40;101328.69;5035113;28;20111;-55
2023/09/28 01:57:17;;;;;;;1.60;1.50;;;;;;;19.28;60.45;101324.25;5035128;28;20037;-55
2023/09/28 01:59:43;;;;;;;1.40;1.30;;;;;;;19.29;60.79;101331.38;5035251;28;20139;-55
2023/09/28 02:02:08;;;;;;;1.35;1.25;;;;;;;19.28;60.24;101345.84;5037953;28;20386;-55
2023/09/28 02:04:37;;;;;;;1.42;1.33;;;;;;;19.28;60.41;101343.16;5036964;28;20025;-55
2023/09/28 02:07:02;;;;;;;1.35;1.25;;;;;;;19.27;60.67;101342.31;5034866;28;20516;-55
2023/09/28 02:09:29;;;;;;;1.75;1.63;;;;;;;19.28;60.42;101343.16;5034597;28;20025;-55
2023/09/28 02:11:54;;;;;;;1.58;1.48;;;;;;;19.28;60.80;101359.34;5036927;28;20140;-55
2023/09/28 02:14:19;;;;;;;1.83;1.58;;;;;;;19.27;60.52;101355.81;5033824;28;20131;-55
2023/09/28 02:16:45;;;;;;;1.48;1.38;;;;;;;19.29;60.60;101358.38;5034436;28;20067;-55
2023/09/28 02:19:11;;;;;;;1.50;1.40;;;;;;;19.28;60.71;101362.06;5032786;28;20041;-55
2023/09/28 02:21:36;;;;;;;1.55;1.45;;;;;;;19.27;60.78;101358.50;5026780;28;20040;-55
2023/09/28 02:24:02;;;;;;;1.27;1.17;;;;;;;19.28;60.69;101354.81;5033408;28;20037;-55
2023/09/28 02:26:27;;;;;;;1.48;1.38;;;;;;;19.27;60.63;101355.81;5034751;28;20108;-55
2023/09/28 02:28:52;;;;;;;1.40;1.30;;;;;;;19.28;60.84;101359.34;5034630;28;20075;-55
2023/09/28 02:31:18;;;;;;;1.27;1.17;;;;;;;19.27;60.65;101354.97;5034850;28;20168;-55
2023/09/28 02:33:44;;;;;;;1.45;1.35;;;;;;;19.27;60.52;101360.38;5034487;28;20037;-55
2023/09/28 02:36:09;;;;;;;1.42;1.33;;;;;;;19.27;60.54;101355.81;5034557;28;20052;-55
2023/09/28 02:38:35;;;;;;;1.25;1.15;;;;;;;19.27;60.65;101352.28;5034274;28;20502;-55
2023/09/28 02:41:01;;;;;;;1.35;1.25;;;;;;;19.26;60.59;101347.84;5034079;28;20052;-55
2023/09/28 02:43:26;;;;;;;1.50;1.40;;;;;;;19.26;60.90;101364.91;5033998;28;20033;-55
2023/09/28 02:45:51;;;;;;;1.40;1.30;;;;;;;19.26;60.59;101362.19;5033976;28;20081;-55
2023/09/28 02:48:17;;;;;;;1.40;1.30;;;;;;;19.26;60.67;101366.75;5034163;28;20025;-55
2023/09/28 02:50:43;;;;;;;1.60;1.50;;;;;;;19.26;60.38;101367.59;5028748;28;20030;-55
2023/09/28 02:53:09;;;;;;;1.30;1.20;;;;;;;19.26;60.93;101367.59;5034203;28;20108;-55
2023/09/28 02:55:36;;;;;;;1.48;1.38;;;;;;;19.25;60.83;101367.75;5034352;28;20392;-55
2023/09/28 02:58:01;;;;;;;1.52;1.42;;;;;;;19.25;60.60;101365.91;5033964;28;20032;-55
2023/09/28 03:00:32;;;;;;;1.95;1.65;;;;;;;19.26;60.59;101366.75;5033271;28;20025;-55
2023/09/28 03:03:00;;;;;;;1.33;1.23;;;;;;;19.26;60.62;101366.75;5033244;28;20039;-55
2023/09/28 03:05:28;;;;;;;1.83;1.48;;;;;;;19.25;60.41;101365.06;5034700;28;20049;-55
2023/09/28 03:07:53;;;;;;;1.50;1.40;;;;;;;19.25;60.82;101370.47;5030885;28;20033;-56
2023/09/28 03:10:19;;;;;;;1.73;1.20;;;;;;;19.25;60.48;101381.25;5034369;28;20037;-56
2023/09/28 03:12:46;;;;;;;1.65;1.55;;;;;;;19.26;60.67;101385.66;5034042;28;20133;-55
2023/09/28 03:15:16;;;;;;;1.60;1.50;;;;;;;19.25;60.41;101392.06;5035189;28;20057;-55
2023/09/28 03:17:41;;;;;;;1.73;1.58;;;;;;;19.24;60.85;101383.09;5034618;28;20044;-55
2023/09/28 03:20:14;;;;;;;1.30;1.20;;;;;;;19.24;60.69;101384.94;5037686;28;20045;-55
2023/09/28 03:22:44;;;;;;;1.50;1.40;;;;;;;19.24;60.88;101384.94;5037638;28;20034;-55
2023/09/28 03:25:16;;;;;;;1.92;1.70;;;;;;;19.25;60.76;101394.75;5037395;28;20041;-55
2023/09/28 03:27:42;;;;;;;1.58;1.48;;;;;;;19.24;60.65;101391.19;5037665;28;20045;-55
2023/09/28 03:30:10;;;;;;;1.60;1.50;;;;;;;19.24;60.64;101395.75;5037121;28;20506;-55
2023/09/28 03:32:39;;;;;;;1.73;1.38;;;;;;;19.24;60.77;101390.34;5037431;28;20418;-55
2023/09/28 03:35:07;;;;;;;1.33;1.23;;;;;;;19.24;60.81;101398.44;5035877;28;20033;-55
2023/09/28 03:37:33;;;;;;;1.65;1.27;;;;;;;19.24;60.55;101395.75;5037536;28;20080;-55
2023/09/28 03:40:00;;;;;;;1.50;1.40;;;;;;;19.24;60.61;101401.13;5036849;28;20474;-55
2023/09/28 03:42:26;;;;;;;1.50;1.40;;;;;;;19.24;60.81;101409.25;5036839;28;20033;-55
2023/09/28 03:44:52;;;;;;;1.60;1.50;;;;;;;19.23;60.44;101411.09;5036669;28;20033;-55
2023/09/28 03:47:18;;;;;;;1.50;1.40;;;;;;;19.24;60.71;101428.13;5036693;28;20026;-55
2023/09/28 03:49:43;;;;;;;1.35;1.27;;;;;;;19.22;60.69;101428.28;5034053;28;20059;-55
2023/09/28 03:52:08;;;;;;;1.70;1.60;;;;;;;19.23;60.42;101423.72;5037405;28;20116;-55
2023/09/28 03:54:34;;;;;;;1.35;1.25;;;;;;;19.23;60.51;101427.28;5037233;28;20061;-55
2023/09/28 03:56:59;;;;;;;1.48;1.35;;;;;;;19.24;60.79;101437.09;5037156;28;20502;-55
2023/09/28 03:59:25;;;;;;;1.77;1.67;;;;;;;19.23;60.69;101431.81;5037008;28;20072;-55
2023/09/28 04:01:51;;;;;;;1.55;1.45;;;;;;;19.23;60.67;101426.41;5036002;28;20064;-55
2023/09/28 04:04:16;;;;;;;1.50;1.40;;;;;;;19.22;60.64;101430.97;5036867;28;20083;-55
2023/09/28 04:06:41;;;;;;;1.77;1.45;;;;;;;19.23;60.71;101437.22;5036810;28;20507;-55
2023/09/28 04:09:07;;;;;;;1.58;1.48;;;;;;;19.22;60.63;101436.38;5036766;28;20033;-55
2023/09/28 04:11:34;;;;;;;1.50;1.40;;;;;;;19.23;60.67;101437.22;5036262;28;20365;-55
2023/09/28 04:14:01;;;;;;;2.25;1.38;;;;;;;19.21;60.63;101434.69;5036262;28;20053;-55
2023/09/28 04:16:27;;;;;;;1.67;1.58;;;;;;;19.22;60.69;101432.81;5036198;28;20116;-55
2023/09/28 04:18:52;;;;;;;1.67;1.58;;;;;;;19.22;60.87;101432.81;5036388;28;20120;-55
2023/09/28 04:21:17;;;;;;;1.75;1.52;;;;;;;19.21;61.04;101437.38;5036247;28;20065;-55
2023/09/28 04:23:43;;;;;;;2.00;1.35;;;;;;;19.21;61.00;101434.69;5035833;28;20029;-55
2023/09/28 04:26:08;;;;;;;1.52;1.42;;;;;;;19.22;60.67;101430.13;5035410;28;20041;-55
2023/09/28 04:28:34;;;;;;;1.70;1.45;;;;;;;19.21;60.51;101433.81;5037104;28;20076;-55
2023/09/28 04:30:59;;;;;;;1.58;1.42;;;;;;;19.21;60.81;101434.69;5037391;28;20037;-56
2023/09/28 04:33:25;;;;;;;1.88;1.70;;;;;;;19.21;60.70;101428.41;5036767;28;20059;-55
2023/09/28 04:35:50;;;;;;;1.50;1.40;;;;;;;19.21;60.62;101433.81;5036823;28;20033;-55
2023/09/28 04:38:16;;;;;;;1.80;1.70;;;;;;;19.21;60.86;101441.91;5036389;28;20029;-55
2023/09/28 04:40:41;;;;;;;1.67;1.58;;;;;;;19.21;60.62;101444.59;5036136;28;20033;-55
2023/09/28 04:43:08;;;;;;;1.60;1.50;;;;;;;19.20;60.55;101448.31;5036165;28;20402;-55
2023/09/28 04:45:33;;;;;;;1.52;1.42;;;;;;;19.21;60.75;101447.31;5036049;28;20041;-55
2023/09/28 04:47:59;;;;;;;1.70;1.60;;;;;;;19.20;60.82;101453.72;5036160;28;20128;-55
2023/09/28 04:50:24;;;;;;;2.60;1.67;;;;;;;19.20;60.69;101453.72;5035992;28;20044;-55
2023/09/28 04:52:50;;;;;;;1.60;1.50;;;;;;;19.19;60.92;101455.56;5035816;28;20406;-56
2023/09/28 04:55:15;;;;;;;2.17;1.60;;;;;;;19.19;61.00;101452.00;5035764;28;20060;-55
2023/09/28 04:57:40;;;;;;;1.75;1.58;;;;;;;19.20;60.57;101459.97;5035379;28;20033;-55
2023/09/28 05:00:09;;;;;;;1.40;1.30;;;;;;;19.18;60.94;101456.53;5035397;28;20108;-55
2023/09/28 05:02:35;;;;;;;1.75;1.65;;;;;;;19.19;60.61;101468.19;5028950;28;20042;-55
2023/09/28 05:05:00;;;;;;;1.95;1.70;;;;;;;19.19;60.73;101479.88;5049912;28;20043;-56
2023/09/28 05:07:25;;;;;;;1.70;1.60;;;;;;;19.19;60.60;101484.38;5034954;28;20025;-55
2023/09/28 05:09:51;;;;;;;1.65;1.55;;;;;;;19.19;60.89;101490.66;5030770;28;20073;-55
2023/09/28 05:12:16;;;;;;;1.65;1.52;;;;;;;19.19;60.72;101497.88;5035921;28;20037;-55
2023/09/28 05:14:42;;;;;;;2.25;1.52;;;;;;;19.18;60.80;101494.34;5036235;28;20041;-55
2023/09/28 05:17:07;;;;;;;1.60;1.50;;;;;;;19.19;60.81;101503.28;5035776;28;20037;-55
2023/09/28 05:19:33;;;;;;;1.55;1.45;;;;;;;19.18;60.96;101507.84;5031138;28;20033;-56
2023/09/28 05:21:58;;;;;;;1.60;1.50;;;;;;;19.19;60.73;101500.59;5036266;28;20029;-55
2023/09/28 05:24:24;;;;;;;2.00;1.65;;;;;;;19.18;60.87;101512.38;5036322;28;20025;-55
2023/09/28 05:26:49;;;;;;;1.95;1.67;;;;;;;19.18;60.59;101507.00;5034744;28;20052;-55
2023/09/28 05:29:15;;;;;;;2.42;1.40;;;;;;;19.17;60.73;101513.38;5035105;28;20490;-55
2023/09/28 05:31:40;;;;;;;1.73;1.45;;;;;;;19.18;60.93;101523.19;5034823;28;20033;-55
2023/09/28 05:34:06;;;;;;;1.60;1.50;;;;;;;19.17;60.65;101529.56;5033593;28;20048;-55
2023/09/28 05:36:32;;;;;;;1.70;1.60;;;;;;;19.16;60.75;101526.03;5034786;28;20061;-55
2023/09/28 05:38:57;;;;;;;2.05;1.70;;;;;;;19.16;60.56;101526.03;5034353;28;20116;-55
2023/09/28 05:41:22;;;;;;;2.25;1.95;;;;;;;19.17;60.61;101526.88;5034980;28;20026;-55
2023/09/28 05:43:48;;;;;;;1.70;1.60;;;;;;;19.16;60.67;101528.72;5034353;28;20116;-55
2023/09/28 05:46:14;;;;;;;1.80;1.70;;;;;;;19.17;61.13;101532.25;5033087;28;20461;-55
2023/09/28 05:48:39;;;;;;;1.73;1.60;;;;;;;19.16;60.62;101541.38;5034383;28;20391;-55
2023/09/28 05:51:05;;;;;;;2.50;1.63;;;;;;;19.16;60.59;101549.47;5034362;28;20026;-55
2023/09/28 05:53:30;;;;;;;1.92;1.67;;;;;;;19.16;60.80;101547.63;5035249;28;20505;-55
2023/09/28 05:55:56;;;;;;;2.13;1.73;;;;;;;19.16;60.56;101546.78;5035406;28;20036;-55
2023/09/28 05:58:21;;;;;;;1.80;1.70;;;;;;;19.14;60.48;101550.44;5035024;28;20038;-55
2023/09/28 06:00:46;;;;;;;2.47;1.55;;;;;;;19.16;60.81;101565.66;5035115;28;20053;-55
2023/09/28 06:03:12;;;;;;;2.22;1.80;;;;;;;19.14;60.63;101566.66;5034994;28;20525;-55
2023/09/28 06:05:38;;;;;;;1.52;1.42;;;;;;;19.16;60.76;101576.47;5035761;28;20446;-55
2023/09/28 06:08:04;;;;;;;2.25;1.70;;;;;;;19.14;60.55;101569.34;5036227;28;20083;-55
2023/09/28 06:10:30;;;;;;;2.38;1.75;;;;;;;19.14;60.89;101574.75;5033937;28;20486;-55
2023/09/28 06:12:56;;;;;;;1.73;1.63;;;;;;;19.14;60.62;101565.81;5034053;28;20061;-55
2023/09/28 06:15:21;;;;;;;2.28;1.90;;;;;;;19.16;60.67;101554.88;5034154;28;20034;-55
2023/09/28 06:17:46;;;;;;;2.90;1.95;;;;;;;19.14;60.84;101557.69;5033771;28;20479;-55
2023/09/28 06:20:12;;;;;;;1.70;1.60;;;;;;;19.14;60.64;101563.94;5033907;28;20037;-55
2023/09/28 06:22:37;;;;;;;2.20;1.90;;;;;;;19.13;60.56;101556.84;5033838;28;20419;-55
2023/09/28 06:25:04;;;;;;;2.03;1.52;;;;;;;19.14;60.82;101563.09;5031503;28;20399;-55
2023/09/28 06:27:29;;;;;;;1.95;1.65;;;;;;;19.14;60.79;101568.50;5035606;28;20383;-55
2023/09/28 06:29:55;;;;;;;1.98;1.45;;;;;;;19.14;60.75;101576.59;5035792;28;20033;-55
2023/09/28 06:32:21;;;;;;;2.03;1.63;;;;;;;19.13;60.95;101581.16;5035057;28;20048;-55
2023/09/28 06:34:47;;;;;;;2.10;1.73;;;;;;;19.14;60.35;101592.78;5034477;28;20102;-55
2023/09/28 06:37:12;;;;;;;1.60;1.50;;;;;;;19.14;60.61;101590.09;5034496;28;20068;-55
2023/09/28 06:39:38;;;;;;;2.00;1.70;;;;;;;19.14;60.60;101593.63;5034361;28;20056;-55
2023/09/28 06:42:04;;;;;;;1.95;1.60;;;;;;;19.13;60.97;101589.25;5034066;28;20072;-55
2023/09/28 06:44:30;;;;;;;1.70;1.60;;;;;;;19.13;60.43;101599.16;5033917;28;20043;-55
2023/09/28 06:46:56;;;;;;;1.73;1.63;;;;;;;19.13;60.71;101586.56;5034053;28;20120;-55
2023/09/28 06:49:22;;;;;;;1.95;1.70;;;;;;;19.13;60.64;101597.34;5034063;28;20111;-55
2023/09/28 06:51:49;;;;;;;1.70;1.60;;;;;;;19.13;60.38;101597.34;5037396;28;20499;-55
2023/09/28 06:54:15;;;;;;;2.95;1.88;;;;;;;19.14;60.56;101600.88;5037807;28;20049;-56
2023/09/28 06:56:40;;;;;;;2.55;1.80;;;;;;;19.13;60.50;101610.84;5037853;28;20041;-55
2023/09/28 06:59:07;;;;;;;2.22;1.75;;;;;;;19.13;60.48;101613.53;5037496;28;20083;-55
2023/09/28 07:01:33;;;;;;;3.15;1.80;;;;;;;19.14;60.44;101617.94;5037206;28;20033;-55
2023/09/28 07:03:59;;;;;;;2.63;1.67;;;;;;;19.12;60.43;101614.50;5039216;28;20125;-55
2023/09/28 07:06:24;;;;;;;3.42;1.63;;;;;;;19.14;60.18;101633.28;5038472;28;20490;-55
2023/09/28 07:08:50;;;;;;;1.67;1.58;;;;;;;19.14;60.69;101634.13;5037067;28;20044;-55
2023/09/28 07:11:15;;;;;;;2.08;1.88;;;;;;;19.14;60.49;101633.28;5038026;28;20403;-56
2023/09/28 07:13:41;;;;;;;1.52;1.38;;;;;;;19.14;60.25;101628.72;5037867;28;20053;-55
2023/09/28 07:16:07;;;;;;;2.80;1.80;;;;;;;19.15;59.98;101618.78;5038218;28;20525;-55
2023/09/28 07:18:33;;;;;;;2.10;1.63;;;;;;;19.14;60.30;101619.78;5035784;28;20033;-55
2023/09/28 07:20:58;;;;;;;2.40;1.75;;;;;;;19.14;60.39;101617.94;5038574;28;20391;-55
2023/09/28 07:23:24;;;;;;;2.08;1.48;;;;;;;19.14;60.58;101636.84;5038286;28;20041;-55
2023/09/28 07:25:51;;;;;;;1.90;1.25;;;;;;;19.15;60.02;101632.28;5038126;28;20046;-55
2023/09/28 07:28:16;;;;;;;2.75;2.03;;;;;;;19.13;60.70;101608.16;5037404;28;20149;-55
2023/09/28 07:30:42;;;;;;;2.55;1.73;;;;;;;19.15;60.24;101607.97;5037316;28;20163;-55
2023/09/28 07:33:07;;;;;;;3.03;1.80;;;;;;;19.14;60.61;101620.63;5037007;28;20482;-55
2023/09/28 07:35:33;;;;;;;1.42;1.33;;;;;;;19.14;60.52;101634.13;5036877;28;20104;-54
2023/09/28 07:37:59;;;;;;;2.75;1.55;;;;;;;19.14;60.32;101646.78;5037337;28;20494;-54
2023/09/28 07:40:25;;;;;;;3.22;1.65;;;;;;;19.14;60.32;101655.72;5036754;28;20029;-54
2023/09/28 07:42:51;;;;;;;1.77;1.67;;;;;;;19.14;60.26;101644.09;5036478;28;20041;-55
2023/09/28 07:45:18;;;;;;;3.45;1.90;;;;;;;19.14;60.54;101649.47;5037801;28;20036;-54
2023/09/28 07:47:44;;;;;;;2.33;1.70;;;;;;;19.14;60.17;101658.44;5037929;28;20067;-55
2023/09/28 07:50:11;;;;;;;1.80;1.55;;;;;;;19.13;60.19;101654.03;5037728;28;20037;-54
2023/09/28 07:52:38;;;;;;;2.90;1.50;;;;;;;19.14;60.22;101650.31;5037609;28;20029;-55
2023/09/28 07:55:04;;;;;;;2.42;1.60;;;;;;;19.14;60.29;101655.72;5037421;28;20537;-55
2023/09/28 07:57:29;;;;;;;3.50;2.20;;;;;;;19.14;60.27;101660.28;5037390;28;20037;-55
2023/09/28 07:59:55;;;;;;;2.03;1.55;;;;;;;19.14;60.30;101663.81;5036951;28;20041;-55
2023/09/28 08:02:21;;;;;;;2.45;1.60;;;;;;;19.16;60.24;101665.56;5036790;28;20051;-55
2023/09/28 08:04:48;;;;;;;3.08;2.05;;;;;;;19.16;60.30;101681.75;5036775;28;20052;-55
2023/09/28 08:07:14;;;;;;;4.40;2.17;;;;;;;19.16;60.18;101679.06;5036912;28;20083;-55
2023/09/28 08:09:39;;;;;;;5.20;1.98;;;;;;;19.17;60.27;101683.44;5036382;28;20084;-55
2023/09/28 08:12:04;;;;;;;3.20;1.75;;;;;;;19.16;60.26;101674.50;5036522;28;20033;-55
2023/09/28 08:14:30;;;;;;;3.75;1.92;;;;;;;19.16;60.17;101679.06;5037022;28;20442;-55
2023/09/28 08:16:56;;;;;;;2.70;1.52;;;;;;;19.17;59.94;101678.03;5037202;28;20376;-55
2023/09/28 08:19:21;;;;;;;3.45;2.17;;;;;;;19.16;60.37;101679.91;5037025;28;20055;-54
2023/09/28 08:21:46;;;;;;;3.22;2.05;;;;;;;19.16;60.14;101677.19;5035886;28;20526;-54
2023/09/28 08:24:12;;;;;;;2.58;1.73;;;;;;;19.17;60.03;101678.88;5035676;28;20033;-54
2023/09/28 08:26:38;;;;;;;2.67;1.83;;;;;;;19.16;60.10;101679.06;5036967;28;20052;-55
2023/09/28 08:29:04;;;;;;;4.43;1.85;;;;;;;19.16;59.90;101682.59;5037132;28;20470;-55
2023/09/28 08:31:31;;;;;;;4.07;1.83;;;;;;;19.17;60.21;101686.13;5037135;28;20472;-55
2023/09/28 08:33:59;;;;;;;3.97;1.90;;;;;;;19.17;60.00;101696.94;5036840;28;20081;-54
2023/09/28 08:36:25;;;;;;;3.80;1.98;;;;;;;19.17;59.96;101688.84;5040569;28;20078;-55
2023/09/28 08:38:51;;;;;;;4.05;1.80;;;;;;;19.17;60.15;101686.13;5036334;28;20056;-55
2023/09/28 08:41:25;;;;;;;2.72;1.50;;;;;;;19.18;59.94;101695.97;5036014;28;20037;-55
2023/09/28 08:43:55;;;;;;;2.95;1.67;;;;;;;19.18;60.06;101706.75;5038973;28;20395;-55
2023/09/28 08:46:24;;;;;;;2.90;1.52;;;;;;;19.18;59.88;101712.16;5035732;28;20025;-56
2023/09/28 08:48:50;;;;;;;3.83;1.45;;;;;;;19.18;59.93;101720.25;5035618;28;20045;-55
2023/09/28 08:51:16;;;;;;;2.90;1.65;;;;;;;19.19;60.09;101719.25;5035406;28;20488;-55
2023/09/28 08:53:43;;;;;;;5.82;2.00;;;;;;;19.18;60.20;101717.56;5035360;28;20044;-55
2023/09/28 08:56:10;;;;;;;3.03;1.63;;;;;;;19.19;59.84;101730.94;5034979;28;20029;-55
2023/09/28 08:58:37;;;;;;;4.57;1.70;;;;;;;19.19;60.09;101717.44;5035112;28;20360;-55
2023/09/28 09:01:03;;;;;;;3.83;1.73;;;;;;;19.20;59.96;101718.28;5035528;28;20033;-55
2023/09/28 09:03:31;;;;;;;4.20;1.83;;;;;;;19.20;60.08;101718.28;5036254;28;20040;-55
2023/09/28 09:05:57;;;;;;;5.93;1.83;;;;;;;19.21;60.19;101720.84;5036016;28;20044;-55
2023/09/28 09:08:25;;;;;;;3.72;1.67;;;;;;;19.21;60.06;101730.78;5036746;28;20029;-55
2023/09/28 09:10:51;;;;;;;3.25;1.60;;;;;;;19.20;60.25;101724.53;5036627;28;20688;-55
2023/09/28 09:13:20;;;;;;;5.40;2.17;;;;;;;19.20;59.85;101729.94;5034388;28;20129;-55
2023/09/28 09:15:46;;;;;;;3.40;1.63;;;;;;;19.20;60.08;101732.63;5032080;28;20498;-55
2023/09/28 09:18:21;;;;;;;3.15;1.63;;;;;;;19.20;59.91;101724.53;5035613;28;20029;-55
2023/09/28 09:20:48;;;;;;;4.53;1.88;;;;;;;19.19;59.96;101717.44;5035184;28;20044;-56
2023/09/28 09:23:15;;;;;;;3.85;1.80;;;;;;;19.21;60.31;101722.69;5035166;28;20028;-55
2023/09/28 09:25:41;;;;;;;3.97;1.85;;;;;;;19.21;60.18;101719.97;5034946;28;20244;-55
2023/09/28 09:28:07;;;;;;;5.72;2.15;;;;;;;19.21;60.08;101725.38;5034896;28;20040;-55
2023/09/28 09:30:36;;;;;;;2.85;1.60;;;;;;;19.21;59.92;101726.25;5034990;28;20034;-56
2023/09/28 09:33:04;;;;;;;3.38;1.73;;;;;;;19.22;60.11;101729.81;5034976;28;20021;-55
2023/09/28 09:35:31;;;;;;;3.97;1.92;;;;;;;19.23;60.12;101734.19;5033272;28;20030;-55
2023/09/28 09:37:56;;;;;;;3.75;1.75;;;;;;;19.22;60.30;101737.91;5034351;28;20026;-55
2023/09/28 09:40:21;;;;;;;3.10;1.83;;;;;;;19.22;59.85;101743.31;5035487;28;20040;-55
2023/09/28 09:42:47;;;;;;;4.40;1.80;;;;;;;19.22;60.44;101738.75;5035496;28;20034;-55
2023/09/28 09:45:12;;;;;;;3.80;1.90;;;;;;;19.23;60.23;101736.91;5035363;28;20476;-55
2023/09/28 09:47:47;;;;;;;3.45;1.88;;;;;;;19.23;60.39;101734.19;5034238;28;20061;-55
2023/09/28 09:50:17;;;;;;;2.33;1.70;;;;;;;19.23;60.28;101731.50;5033656;28;20087;-55
2023/09/28 09:52:44;;;;;;;5.18;1.98;;;;;;;19.24;60.03;101738.63;5034374;28;20126;-55
2023/09/28 09:55:09;;;;;;;4.32;2.00;;;;;;;19.23;60.07;101737.78;5033285;28;20120;-55
2023/09/28 09:57:40;;;;;;;3.85;1.88;;;;;;;19.24;60.11;101733.22;5033692;28;20121;-55
2023/09/28 10:00:08;;;;;;;4.10;1.88;;;;;;;19.24;60.10;101747.56;5031356;28;20021;-55
2023/09/28 10:02:39;;;;;;;2.33;1.48;;;;;;;19.24;60.27;101747.56;5035262;28;20041;-55
2023/09/28 10:05:08;;;;;;;3.08;1.60;;;;;;;19.25;60.35;101745.75;5030875;28;20025;-55
2023/09/28 10:07:37;;;;;;;2.80;1.75;;;;;;;19.25;60.46;101737.66;5034454;28;20024;-55
2023/09/28 10:10:04;;;;;;;3.83;1.67;;;;;;;19.25;60.05;101738.50;5034106;28;20383;-55
2023/09/28 10:12:30;;;;;;;3.47;1.70;;;;;;;19.25;60.07;101726.84;5029639;28;20073;-56
2023/09/28 10:14:58;;;;;;;4.00;1.65;;;;;;;19.25;60.22;101726.84;5034390;28;20034;-55
2023/09/28 10:17:28;;;;;;;3.38;1.90;;;;;;;19.26;60.15;101717.75;5029995;28;20037;-55
2023/09/28 10:19:58;;;;;;;3.53;1.40;;;;;;;19.26;60.26;101706.94;5033529;28;20025;-55
2023/09/28 10:22:24;;;;;;;3.72;1.75;;;;;;;19.27;60.15;101704.13;5034538;28;20026;-55
2023/09/28 10:24:49;;;;;;;4.97;1.88;;;;;;;19.26;60.08;101696.16;5032322;28;20091;-55
2023/09/28 10:27:15;;;;;;;4.47;1.70;;;;;;;19.27;60.42;101692.47;5033423;28;20386;-56
2023/09/28 10:29:41;;;;;;;2.67;1.58;;;;;;;19.28;60.41;101702.25;5034088;28;20037;-55
2023/09/28 10:32:12;;;;;;;3.95;1.85;;;;;;;19.28;60.13;101699.56;5034576;28;20120;-55
2023/09/28 10:34:40;;;;;;;2.25;1.75;;;;;;;19.28;60.20;101716.59;5034630;28;20083;-55
2023/09/28 10:37:06;;;;;;;3.42;1.63;;;;;;;19.29;60.13;101706.69;5037170;28;20072;-55
2023/09/28 10:39:32;;;;;;;3.78;1.75;;;;;;;19.29;60.28;101717.50;5033391;28;20352;-55
2023/09/28 10:42:05;;;;;;;4.00;1.90;;;;;;;19.29;60.18;101718.34;5033520;28;20025;-55
2023/09/28 10:44:32;;;;;;;2.88;1.55;;;;;;;19.30;60.32;101716.47;5033381;28;20038;-55
2023/09/28 10:46:58;;;;;;;1.90;1.27;;;;;;;19.30;59.94;101721.88;5033925;28;20531;-55
2023/09/28 10:49:28;;;;;;;3.22;1.85;;;;;;;19.30;60.33;101716.47;5037560;28;20040;-55
2023/09/28 10:51:57;;;;;;;3.50;1.80;;;;;;;19.30;60.19;101717.31;5035067;28;20483;-55
2023/09/28 10:54:26;;;;;;;3.38;1.48;;;;;;;19.32;60.16;101726.19;5030765;28;20107;-55
2023/09/28 10:56:51;;;;;;;2.70;1.50;;;;;;;19.32;60.28;101723.47;5034163;28;20059;-55
2023/09/28 10:59:20;;;;;;;3.83;1.80;;;;;;;19.33;60.18;101716.22;5034401;28;20475;-56
2023/09/28 11:01:49;;;;;;;4.82;1.80;;;;;;;19.32;59.97;101731.59;5033891;28;20037;-55
2023/09/28 11:04:16;;;;;;;1.73;1.58;;;;;;;19.34;60.03;101731.41;5033914;28;20033;-55
2023/09/28 11:06:43;;;;;;;3.53;1.50;;;;;;;19.34;60.17;101737.69;5027518;28;20045;-55
2023/09/28 11:09:09;;;;;;;4.07;1.70;;;;;;;19.34;60.11;101732.31;5034042;28;20033;-55
2023/09/28 11:11:38;;;;;;;3.72;1.60;;;;;;;19.34;59.98;101740.41;5033761;28;20038;-55
2023/09/28 11:14:06;;;;;;;4.13;1.33;;;;;;;19.35;60.27;101749.34;5033342;28;20180;-55
2023/09/28 11:16:33;;;;;;;4.88;1.70;;;;;;;19.36;59.97;101747.50;5033428;28;20037;-55
2023/09/28 11:18:59;;;;;;;2.13;1.45;;;;;;;19.37;60.13;101746.53;5029501;28;20045;-55
2023/09/28 11:21:26;;;;;;;2.97;1.65;;;;;;;19.37;60.22;101735.72;5037062;28;20049;-55